SeattleWeather.com

KSEA - Seattle/Metro, Washington, USA
Distance from station: SSW 24mi, 39km
Updated: Tue, 24-Apr-2018 3:53am PDT
Clear
Clear
 Wind from N
Wind: N 12 mph , 19 km/h
Temperature: 52°F , 11°C
Dew Point: 36°F , 2°C
Humidity: 54%
Barometer: 30.20 inHg , 1022.7 hPa
Clouds: Clear
Visibility: 10 miles , 16 km
2018/04/24 10:53 KSEA 241053Z 01010KT 10SM CLR 11/02 A3020 RMK AO2 SLP233 T01060022
KBFI - Seattle/Boeing, Washington, USA
Distance from station: SSW 18mi, 29km
Updated: Tue, 24-Apr-2018 3:53am PDT
Clear
Clear
 Wind from N
Wind: N 3 mph , 6 km/h
Temperature: 48°F , 9°C
Dew Point: 39°F , 4°C
Humidity: 71%
Barometer: 30.21 inHg , 1023 hPa
Clouds: Clear
Visibility: 10 miles , 16 km
2018/04/24 10:53 KBFI 241053Z 36003KT 10SM CLR 09/04 A3021 RMK AO2 SLP230 T00940039
NWS Forecast for 3 Miles NNW Boulevard Park, WA
National Weather Service Forecast for: 3 Miles NNW Boulevard Park, WA
Issued by: National Weather Service Seattle/Tacoma, WA
Updated: Tue, 24-Apr-2018 3:05am PDT
 
Overnight

Overnight: Clear
Clear
Tuesday

Tuesday: Sunny
Sunny
Tuesday
Night
Tuesday Night: Mostly Clear
Mostly Clear
Wednesday

Wednesday: Sunny
Sunny
Wednesday
Night
Wednesday Night: Clear
Clear
Thursday

Thursday: Sunny
Sunny
Thursday
Night
Thursday Night: Partly Cloudy then Slight Chance Rain Showers
Partly Cloudy then Slight Chance Rain Showers
Friday

Friday: Chance Rain Showers
Chance Rain Showers
Friday
Night
Friday Night: Chance Rain Showers
Chance Rain Showers
Lo 46 °F Hi 73 °F ↓ Lo 49 °F Hi 73 °F Lo 51 °F Hi 79 °F Lo 52 °F Hi 67 °F Lo 49 °F

 

Overnight
 
Clear, with a low around 46. North northeast wind around 7 mph.
Tuesday
 
Sunny. High near 73, with temperatures falling to around 70 in the afternoon. Northeast wind 5 to 8 mph.
Tuesday Night
 
Mostly clear, with a low around 49. North wind around 8 mph.
Wednesday
 
Sunny, with a high near 73. North wind 6 to 14 mph.
Wednesday Night
 
Clear, with a low around 51. North wind 2 to 13 mph.
Thursday
 
Sunny, with a high near 79.
Thursday Night
 
A slight chance of rain showers after 5am. Partly cloudy, with a low around 52. Chance of precipitation is 20%.
Friday
 
A chance of rain showers. Partly sunny, with a high near 67.
Friday Night
 
A chance of rain showers. Mostly cloudy, with a low around 49.
Saturday
 
A chance of rain showers. Cloudy, with a high near 58.
Saturday Night
 
A chance of rain showers. Cloudy, with a low around 48.
Sunday
 
A chance of rain showers. Cloudy, with a high near 58.
Sunday Night
 
A chance of rain showers. Mostly cloudy, with a low around 46.
Monday
 
A chance of rain showers. Mostly cloudy, with a high near 58.

 

Forecast from NOAA-NWS for 3 Miles NNW Boulevard Park, WA.